sensor_id;sensor_type;location;lat;lon;timestamp;P1;durP1;ratioP1;P2;durP2;ratioP2
19869;SDS011;10097;50.862;4.696;2022-09-09T00:02:15;8.20;;;2.17;;
19869;SDS011;10097;50.862;4.696;2022-09-09T00:05:12;4.00;;;1.57;;
19869;SDS011;10097;50.862;4.696;2022-09-09T00:07:47;8.27;;;1.77;;
19869;SDS011;10097;50.862;4.696;2022-09-09T00:12:57;9.03;;;2.13;;
19869;SDS011;10097;50.862;4.696;2022-09-09T00:15:26;9.87;;;1.80;;
19869;SDS011;10097;50.862;4.696;2022-09-09T00:23:38;6.33;;;1.83;;
19869;SDS011;10097;50.862;4.696;2022-09-09T00:28:31;8.10;;;1.90;;
19869;SDS011;10097;50.862;4.696;2022-09-09T00:31:14;10.77;;;2.10;;
19869;SDS011;10097;50.862;4.696;2022-09-09T00:33:45;7.27;;;2.00;;
19869;SDS011;10097;50.862;4.696;2022-09-09T00:36:14;17.60;;;2.57;;
19869;SDS011;10097;50.862;4.696;2022-09-09T00:38:49;7.77;;;1.83;;
19869;SDS011;10097;50.862;4.696;2022-09-09T00:44:30;5.67;;;1.60;;
19869;SDS011;10097;50.862;4.696;2022-09-09T00:50:03;8.40;;;1.80;;
19869;SDS011;10097;50.862;4.696;2022-09-09T00:52:35;7.57;;;2.20;;
19869;SDS011;10097;50.862;4.696;2022-09-09T00:57:53;7.73;;;1.90;;
19869;SDS011;10097;50.862;4.696;2022-09-09T01:05:46;6.53;;;1.87;;
19869;SDS011;10097;50.862;4.696;2022-09-09T01:11:21;9.60;;;2.00;;
19869;SDS011;10097;50.862;4.696;2022-09-09T01:14:11;9.10;;;1.97;;
19869;SDS011;10097;50.862;4.696;2022-09-09T01:25:28;8.60;;;2.23;;
19869;SDS011;10097;50.862;4.696;2022-09-09T01:28:14;7.10;;;1.77;;
19869;SDS011;10097;50.862;4.696;2022-09-09T01:30:44;9.33;;;1.97;;
19869;SDS011;10097;50.862;4.696;2022-09-09T01:33:16;12.90;;;2.30;;
19869;SDS011;10097;50.862;4.696;2022-09-09T01:35:53;11.20;;;2.00;;
19869;SDS011;10097;50.862;4.696;2022-09-09T01:38:25;7.77;;;1.80;;
19869;SDS011;10097;50.862;4.696;2022-09-09T01:40:51;12.57;;;2.10;;
19869;SDS011;10097;50.862;4.696;2022-09-09T01:43:18;12.10;;;2.40;;
19869;SDS011;10097;50.862;4.696;2022-09-09T01:45:46;5.90;;;1.43;;
19869;SDS011;10097;50.862;4.696;2022-09-09T01:48:14;9.67;;;1.90;;
19869;SDS011;10097;50.862;4.696;2022-09-09T01:50:40;6.87;;;1.87;;
19869;SDS011;10097;50.862;4.696;2022-09-09T01:53:06;15.43;;;2.33;;
19869;SDS011;10097;50.862;4.696;2022-09-09T01:55:42;10.23;;;1.77;;
19869;SDS011;10097;50.862;4.696;2022-09-09T02:02:24;6.00;;;1.77;;
19869;SDS011;10097;50.862;4.696;2022-09-09T02:07:07;8.90;;;2.20;;
19869;SDS011;10097;50.862;4.696;2022-09-09T02:09:41;5.00;;;1.60;;
19869;SDS011;10097;50.862;4.696;2022-09-09T02:12:13;12.40;;;2.03;;
19869;SDS011;10097;50.862;4.696;2022-09-09T02:14:43;12.67;;;2.73;;
19869;SDS011;10097;50.862;4.696;2022-09-09T02:17:15;9.77;;;1.90;;
19869;SDS011;10097;50.862;4.696;2022-09-09T02:19:47;8.20;;;2.30;;
19869;SDS011;10097;50.862;4.696;2022-09-09T02:22:19;11.07;;;2.40;;
19869;SDS011;10097;50.862;4.696;2022-09-09T02:24:48;11.03;;;1.80;;
19869;SDS011;10097;50.862;4.696;2022-09-09T02:27:17;7.90;;;1.83;;
19869;SDS011;10097;50.862;4.696;2022-09-09T02:29:45;7.97;;;1.77;;
19869;SDS011;10097;50.862;4.696;2022-09-09T02:32:14;9.27;;;2.00;;
19869;SDS011;10097;50.862;4.696;2022-09-09T02:34:46;12.30;;;1.93;;
19869;SDS011;10097;50.862;4.696;2022-09-09T02:37:17;9.93;;;1.90;;
19869;SDS011;10097;50.862;4.696;2022-09-09T02:39:45;9.07;;;1.83;;
19869;SDS011;10097;50.862;4.696;2022-09-09T02:42:11;12.33;;;2.30;;
19869;SDS011;10097;50.862;4.696;2022-09-09T02:44:39;10.17;;;2.20;;
19869;SDS011;10097;50.862;4.696;2022-09-09T02:53:16;12.27;;;2.10;;
19869;SDS011;10097;50.862;4.696;2022-09-09T02:56:04;12.23;;;2.13;;
19869;SDS011;10097;50.862;4.696;2022-09-09T02:58:34;8.80;;;2.10;;
19869;SDS011;10097;50.862;4.696;2022-09-09T03:01:01;11.93;;;2.33;;
19869;SDS011;10097;50.862;4.696;2022-09-09T03:03:28;9.83;;;2.07;;
19869;SDS011;10097;50.862;4.696;2022-09-09T03:05:55;10.43;;;2.00;;
19869;SDS011;10097;50.862;4.696;2022-09-09T03:08:21;8.53;;;2.00;;
19869;SDS011;10097;50.862;4.696;2022-09-09T03:10:48;8.90;;;2.07;;
19869;SDS011;10097;50.862;4.696;2022-09-09T03:13:14;8.33;;;1.97;;
19869;SDS011;10097;50.862;4.696;2022-09-09T03:15:40;13.03;;;1.83;;
19869;SDS011;10097;50.862;4.696;2022-09-09T03:18:06;13.10;;;2.87;;
19869;SDS011;10097;50.862;4.696;2022-09-09T03:20:32;10.97;;;2.03;;
19869;SDS011;10097;50.862;4.696;2022-09-09T03:22:58;7.47;;;2.17;;
19869;SDS011;10097;50.862;4.696;2022-09-09T03:25:25;11.77;;;2.63;;
19869;SDS011;10097;50.862;4.696;2022-09-09T03:27:51;12.27;;;2.10;;
19869;SDS011;10097;50.862;4.696;2022-09-09T03:30:26;13.07;;;2.50;;
19869;SDS011;10097;50.862;4.696;2022-09-09T03:32:52;13.67;;;2.03;;
19869;SDS011;10097;50.862;4.696;2022-09-09T03:35:20;23.80;;;2.97;;
19869;SDS011;10097;50.862;4.696;2022-09-09T03:37:46;11.80;;;1.87;;
19869;SDS011;10097;50.862;4.696;2022-09-09T03:40:12;11.53;;;2.23;;
19869;SDS011;10097;50.862;4.696;2022-09-09T03:42:40;13.50;;;2.07;;
19869;SDS011;10097;50.862;4.696;2022-09-09T03:45:06;12.90;;;2.20;;
19869;SDS011;10097;50.862;4.696;2022-09-09T03:47:36;9.40;;;2.03;;
19869;SDS011;10097;50.862;4.696;2022-09-09T03:50:02;17.93;;;2.20;;
19869;SDS011;10097;50.862;4.696;2022-09-09T03:52:31;13.67;;;2.07;;
19869;SDS011;10097;50.862;4.696;2022-09-09T03:54:56;15.17;;;2.30;;
19869;SDS011;10097;50.862;4.696;2022-09-09T03:57:22;10.93;;;2.07;;
19869;SDS011;10097;50.862;4.696;2022-09-09T03:59:48;14.20;;;3.10;;
19869;SDS011;10097;50.862;4.696;2022-09-09T04:02:13;14.67;;;2.70;;
19869;SDS011;10097;50.862;4.696;2022-09-09T04:04:42;11.23;;;1.87;;
19869;SDS011;10097;50.862;4.696;2022-09-09T04:07:07;14.03;;;2.40;;
19869;SDS011;10097;50.862;4.696;2022-09-09T04:09:33;12.10;;;2.23;;
19869;SDS011;10097;50.862;4.696;2022-09-09T04:11:59;12.27;;;2.60;;
19869;SDS011;10097;50.862;4.696;2022-09-09T04:14:25;9.43;;;2.30;;
19869;SDS011;10097;50.862;4.696;2022-09-09T04:16:53;17.93;;;2.40;;
19869;SDS011;10097;50.862;4.696;2022-09-09T04:19:21;9.50;;;2.17;;
19869;SDS011;10097;50.862;4.696;2022-09-09T04:21:46;14.33;;;2.47;;
19869;SDS011;10097;50.862;4.696;2022-09-09T04:24:15;13.37;;;2.30;;
19869;SDS011;10097;50.862;4.696;2022-09-09T04:26:41;16.13;;;2.33;;
19869;SDS011;10097;50.862;4.696;2022-09-09T04:29:07;9.67;;;2.13;;
19869;SDS011;10097;50.862;4.696;2022-09-09T04:31:33;11.50;;;2.53;;
19869;SDS011;10097;50.862;4.696;2022-09-09T04:33:59;11.97;;;2.23;;
19869;SDS011;10097;50.862;4.696;2022-09-09T04:36:30;8.73;;;1.90;;
19869;SDS011;10097;50.862;4.696;2022-09-09T04:38:57;13.90;;;2.53;;
19869;SDS011;10097;50.862;4.696;2022-09-09T04:41:22;16.33;;;2.27;;
19869;SDS011;10097;50.862;4.696;2022-09-09T04:43:48;12.03;;;2.13;;
19869;SDS011;10097;50.862;4.696;2022-09-09T04:46:14;12.70;;;2.77;;
19869;SDS011;10097;50.862;4.696;2022-09-09T04:48:42;13.63;;;2.37;;
19869;SDS011;10097;50.862;4.696;2022-09-09T04:51:09;10.67;;;2.10;;
19869;SDS011;10097;50.862;4.696;2022-09-09T04:53:38;10.17;;;2.30;;
19869;SDS011;10097;50.862;4.696;2022-09-09T04:56:07;9.57;;;2.37;;
19869;SDS011;10097;50.862;4.696;2022-09-09T04:58:35;14.73;;;2.30;;
19869;SDS011;10097;50.862;4.696;2022-09-09T05:01:11;10.80;;;2.20;;
19869;SDS011;10097;50.862;4.696;2022-09-09T05:03:44;10.87;;;1.90;;
19869;SDS011;10097;50.862;4.696;2022-09-09T05:06:14;16.40;;;3.07;;
19869;SDS011;10097;50.862;4.696;2022-09-09T05:08:42;15.10;;;2.73;;
19869;SDS011;10097;50.862;4.696;2022-09-09T05:11:15;14.13;;;2.57;;
19869;SDS011;10097;50.862;4.696;2022-09-09T05:13:49;15.93;;;2.30;;
19869;SDS011;10097;50.862;4.696;2022-09-09T05:16:16;17.53;;;3.30;;
19869;SDS011;10097;50.862;4.696;2022-09-09T05:18:43;17.27;;;3.37;;
19869;SDS011;10097;50.862;4.696;2022-09-09T05:21:11;17.70;;;2.90;;
19869;SDS011;10097;50.862;4.696;2022-09-09T05:23:38;13.30;;;2.90;;
19869;SDS011;10097;50.862;4.696;2022-09-09T05:26:05;9.93;;;2.40;;
19869;SDS011;10097;50.862;4.696;2022-09-09T05:28:33;18.17;;;3.47;;
19869;SDS011;10097;50.862;4.696;2022-09-09T05:31:04;15.23;;;2.13;;
19869;SDS011;10097;50.862;4.696;2022-09-09T05:33:36;13.60;;;2.90;;
19869;SDS011;10097;50.862;4.696;2022-09-09T05:36:06;13.47;;;2.50;;
19869;SDS011;10097;50.862;4.696;2022-09-09T05:38:34;15.03;;;2.47;;
19869;SDS011;10097;50.862;4.696;2022-09-09T05:41:01;12.47;;;3.30;;
19869;SDS011;10097;50.862;4.696;2022-09-09T05:43:28;14.90;;;2.30;;
19869;SDS011;10097;50.862;4.696;2022-09-09T05:46:07;16.03;;;2.77;;
19869;SDS011;10097;50.862;4.696;2022-09-09T05:48:35;13.47;;;2.23;;
19869;SDS011;10097;50.862;4.696;2022-09-09T05:51:06;14.07;;;2.30;;
19869;SDS011;10097;50.862;4.696;2022-09-09T05:53:33;16.00;;;2.53;;
19869;SDS011;10097;50.862;4.696;2022-09-09T05:56:00;13.40;;;2.20;;
19869;SDS011;10097;50.862;4.696;2022-09-09T05:58:46;14.30;;;2.20;;
19869;SDS011;10097;50.862;4.696;2022-09-09T06:01:14;12.63;;;2.15;;
19869;SDS011;10097;50.862;4.696;2022-09-09T06:03:59;11.82;;;1.70;;
19869;SDS011;10097;50.862;4.696;2022-09-09T06:06:26;16.50;;;2.20;;
19869;SDS011;10097;50.862;4.696;2022-09-09T06:08:56;14.57;;;2.50;;
19869;SDS011;10097;50.862;4.696;2022-09-09T06:11:24;17.17;;;2.90;;
19869;SDS011;10097;50.862;4.696;2022-09-09T06:13:51;17.52;;;1.92;;
19869;SDS011;10097;50.862;4.696;2022-09-09T06:16:19;12.95;;;1.75;;
19869;SDS011;10097;50.862;4.696;2022-09-09T06:18:48;14.95;;;3.50;;
19869;SDS011;10097;50.862;4.696;2022-09-09T06:21:18;11.10;;;2.63;;
19869;SDS011;10097;50.862;4.696;2022-09-09T06:23:53;10.98;;;1.65;;
19869;SDS011;10097;50.862;4.696;2022-09-09T06:26:20;10.90;;;2.58;;
19869;SDS011;10097;50.862;4.696;2022-09-09T06:28:49;11.93;;;2.10;;
19869;SDS011;10097;50.862;4.696;2022-09-09T06:31:18;11.10;;;2.28;;
19869;SDS011;10097;50.862;4.696;2022-09-09T06:33:47;13.32;;;2.17;;
19869;SDS011;10097;50.862;4.696;2022-09-09T06:36:22;12.05;;;2.30;;
19869;SDS011;10097;50.862;4.696;2022-09-09T06:38:50;11.98;;;1.92;;
19869;SDS011;10097;50.862;4.696;2022-09-09T06:41:18;13.75;;;2.58;;
19869;SDS011;10097;50.862;4.696;2022-09-09T06:43:51;12.48;;;2.30;;
19869;SDS011;10097;50.862;4.696;2022-09-09T06:46:21;12.70;;;2.35;;
19869;SDS011;10097;50.862;4.696;2022-09-09T06:48:50;14.45;;;2.28;;
19869;SDS011;10097;50.862;4.696;2022-09-09T06:51:18;10.38;;;1.70;;
19869;SDS011;10097;50.862;4.696;2022-09-09T06:53:56;13.85;;;2.08;;
19869;SDS011;10097;50.862;4.696;2022-09-09T06:56:37;11.95;;;2.17;;
19869;SDS011;10097;50.862;4.696;2022-09-09T06:59:07;12.40;;;1.83;;
19869;SDS011;10097;50.862;4.696;2022-09-09T07:01:41;12.77;;;1.58;;
19869;SDS011;10097;50.862;4.696;2022-09-09T07:04:12;9.88;;;2.00;;
19869;SDS011;10097;50.862;4.696;2022-09-09T07:06:42;9.48;;;1.58;;
19869;SDS011;10097;50.862;4.696;2022-09-09T07:09:12;9.77;;;1.50;;
19869;SDS011;10097;50.862;4.696;2022-09-09T07:11:44;14.13;;;2.28;;
19869;SDS011;10097;50.862;4.696;2022-09-09T07:14:11;8.70;;;1.48;;
19869;SDS011;10097;50.862;4.696;2022-09-09T07:16:40;8.95;;;1.90;;
19869;SDS011;10097;50.862;4.696;2022-09-09T07:19:09;12.95;;;2.03;;
19869;SDS011;10097;50.862;4.696;2022-09-09T07:21:36;10.73;;;2.05;;
19869;SDS011;10097;50.862;4.696;2022-09-09T07:24:05;14.23;;;1.92;;
19869;SDS011;10097;50.862;4.696;2022-09-09T07:26:34;13.13;;;1.70;;
19869;SDS011;10097;50.862;4.696;2022-09-09T07:29:03;11.15;;;1.67;;
19869;SDS011;10097;50.862;4.696;2022-09-09T07:31:29;11.45;;;1.67;;
19869;SDS011;10097;50.862;4.696;2022-09-09T07:34:02;13.73;;;2.38;;
19869;SDS011;10097;50.862;4.696;2022-09-09T07:36:33;9.02;;;1.45;;
19869;SDS011;10097;50.862;4.696;2022-09-09T07:39:09;9.70;;;1.77;;
19869;SDS011;10097;50.862;4.696;2022-09-09T07:41:44;13.32;;;1.70;;
19869;SDS011;10097;50.862;4.696;2022-09-09T07:44:17;11.70;;;1.75;;
19869;SDS011;10097;50.862;4.696;2022-09-09T07:46:46;11.68;;;1.77;;
19869;SDS011;10097;50.862;4.696;2022-09-09T07:49:15;10.00;;;1.67;;
19869;SDS011;10097;50.862;4.696;2022-09-09T07:51:43;9.23;;;1.30;;
19869;SDS011;10097;50.862;4.696;2022-09-09T07:54:14;9.70;;;1.50;;
19869;SDS011;10097;50.862;4.696;2022-09-09T07:56:44;10.25;;;2.00;;
19869;SDS011;10097;50.862;4.696;2022-09-09T07:59:15;11.73;;;2.00;;
19869;SDS011;10097;50.862;4.696;2022-09-09T08:01:46;14.30;;;1.88;;
19869;SDS011;10097;50.862;4.696;2022-09-09T08:04:14;12.13;;;2.05;;
19869;SDS011;10097;50.862;4.696;2022-09-09T08:06:46;8.50;;;1.30;;
19869;SDS011;10097;50.862;4.696;2022-09-09T08:09:18;10.20;;;1.75;;
19869;SDS011;10097;50.862;4.696;2022-09-09T08:11:54;8.73;;;1.48;;
19869;SDS011;10097;50.862;4.696;2022-09-09T08:14:23;12.38;;;2.08;;
19869;SDS011;10097;50.862;4.696;2022-09-09T08:16:51;7.90;;;1.70;;
19869;SDS011;10097;50.862;4.696;2022-09-09T08:19:23;9.85;;;1.55;;
19869;SDS011;10097;50.862;4.696;2022-09-09T08:21:48;8.32;;;1.52;;
19869;SDS011;10097;50.862;4.696;2022-09-09T08:24:14;7.22;;;1.17;;
19869;SDS011;10097;50.862;4.696;2022-09-09T08:26:41;6.85;;;1.00;;
19869;SDS011;10097;50.862;4.696;2022-09-09T08:29:12;12.95;;;1.42;;
19869;SDS011;10097;50.862;4.696;2022-09-09T08:31:45;12.85;;;2.00;;
19869;SDS011;10097;50.862;4.696;2022-09-09T08:34:18;10.95;;;2.00;;
19869;SDS011;10097;50.862;4.696;2022-09-09T08:36:45;9.07;;;1.42;;
19869;SDS011;10097;50.862;4.696;2022-09-09T08:39:13;9.73;;;1.27;;
19869;SDS011;10097;50.862;4.696;2022-09-09T08:52:52;8.55;;;1.33;;
19869;SDS011;10097;50.862;4.696;2022-09-09T09:11:39;8.32;;;1.70;;
19869;SDS011;10097;50.862;4.696;2022-09-09T09:14:25;8.80;;;1.70;;
19869;SDS011;10097;50.862;4.696;2022-09-09T09:19:26;10.43;;;1.85;;
19869;SDS011;10097;50.862;4.696;2022-09-09T09:27:26;10.68;;;1.92;;
19869;SDS011;10097;50.862;4.696;2022-09-09T09:30:05;14.77;;;2.50;;
19869;SDS011;10097;50.862;4.696;2022-09-09T09:32:40;13.25;;;2.17;;
19869;SDS011;10097;50.862;4.696;2022-09-09T09:35:12;6.32;;;1.80;;
19869;SDS011;10097;50.862;4.696;2022-09-09T09:37:39;7.60;;;1.38;;
19869;SDS011;10097;50.862;4.696;2022-09-09T09:40:13;11.23;;;2.03;;
19869;SDS011;10097;50.862;4.696;2022-09-09T09:42:54;10.98;;;1.92;;
19869;SDS011;10097;50.862;4.696;2022-09-09T09:48:06;12.38;;;1.85;;
19869;SDS011;10097;50.862;4.696;2022-09-09T09:50:35;11.30;;;1.70;;
19869;SDS011;10097;50.862;4.696;2022-09-09T09:53:25;9.98;;;2.15;;
19869;SDS011;10097;50.862;4.696;2022-09-09T09:56:00;7.32;;;1.45;;
19869;SDS011;10097;50.862;4.696;2022-09-09T09:58:29;7.03;;;1.67;;
19869;SDS011;10097;50.862;4.696;2022-09-09T10:00:58;11.32;;;2.05;;
19869;SDS011;10097;50.862;4.696;2022-09-09T10:05:53;11.55;;;2.25;;
19869;SDS011;10097;50.862;4.696;2022-09-09T10:08:21;14.82;;;2.47;;
19869;SDS011;10097;50.862;4.696;2022-09-09T10:13:56;11.90;;;1.90;;
19869;SDS011;10097;50.862;4.696;2022-09-09T10:19:31;13.18;;;3.55;;
19869;SDS011;10097;50.862;4.696;2022-09-09T10:28:07;12.88;;;1.98;;
19869;SDS011;10097;50.862;4.696;2022-09-09T10:36:28;6.85;;;1.45;;
19869;SDS011;10097;50.862;4.696;2022-09-09T10:39:01;9.70;;;1.85;;
19869;SDS011;10097;50.862;4.696;2022-09-09T10:41:52;8.70;;;1.92;;
19869;SDS011;10097;50.862;4.696;2022-09-09T10:47:57;7.47;;;1.83;;
19869;SDS011;10097;50.862;4.696;2022-09-09T10:50:41;8.38;;;1.85;;
19869;SDS011;10097;50.862;4.696;2022-09-09T10:53:09;8.63;;;1.80;;
19869;SDS011;10097;50.862;4.696;2022-09-09T10:55:58;9.05;;;2.20;;
19869;SDS011;10097;50.862;4.696;2022-09-09T10:58:35;9.38;;;1.95;;
19869;SDS011;10097;50.862;4.696;2022-09-09T11:01:15;8.32;;;1.98;;
19869;SDS011;10097;50.862;4.696;2022-09-09T11:04:03;11.10;;;2.55;;
19869;SDS011;10097;50.862;4.696;2022-09-09T11:06:38;8.73;;;2.10;;
19869;SDS011;10097;50.862;4.696;2022-09-09T11:09:12;9.98;;;1.95;;
19869;SDS011;10097;50.862;4.696;2022-09-09T11:14:41;12.07;;;1.92;;
19869;SDS011;10097;50.862;4.696;2022-09-09T11:17:09;11.25;;;2.22;;
19869;SDS011;10097;50.862;4.696;2022-09-09T11:19:39;10.02;;;1.73;;
19869;SDS011;10097;50.862;4.696;2022-09-09T11:22:25;9.55;;;1.80;;
19869;SDS011;10097;50.862;4.696;2022-09-09T11:25:00;9.77;;;2.22;;
19869;SDS011;10097;50.862;4.696;2022-09-09T11:27:43;10.90;;;1.88;;
19869;SDS011;10097;50.862;4.696;2022-09-09T11:30:32;8.27;;;1.50;;
19869;SDS011;10097;50.862;4.696;2022-09-09T11:39:02;9.05;;;2.08;;
19869;SDS011;10097;50.862;4.696;2022-09-09T11:41:51;5.03;;;1.48;;
19869;SDS011;10097;50.862;4.696;2022-09-09T11:44:19;7.03;;;1.27;;
19869;SDS011;10097;50.862;4.696;2022-09-09T11:46:55;5.60;;;1.20;;
19869;SDS011;10097;50.862;4.696;2022-09-09T11:49:28;7.50;;;1.50;;
19869;SDS011;10097;50.862;4.696;2022-09-09T11:52:40;8.60;;;1.77;;
19869;SDS011;10097;50.862;4.696;2022-09-09T11:57:57;9.52;;;1.70;;
19869;SDS011;10097;50.862;4.696;2022-09-09T12:02:59;8.93;;;1.48;;
19869;SDS011;10097;50.862;4.696;2022-09-09T12:05:35;10.68;;;1.80;;
19869;SDS011;10097;50.862;4.696;2022-09-09T12:08:06;5.13;;;1.30;;
19869;SDS011;10097;50.862;4.696;2022-09-09T12:10:36;7.68;;;1.55;;
19869;SDS011;10097;50.862;4.696;2022-09-09T12:13:18;5.55;;;1.17;;
19869;SDS011;10097;50.862;4.696;2022-09-09T12:15:50;8.68;;;1.13;;
19869;SDS011;10097;50.862;4.696;2022-09-09T12:18:34;5.15;;;1.38;;
19869;SDS011;10097;50.862;4.696;2022-09-09T12:31:32;4.72;;;0.82;;
19869;SDS011;10097;50.862;4.696;2022-09-09T12:34:20;5.40;;;1.10;;
19869;SDS011;10097;50.862;4.696;2022-09-09T12:36:51;7.45;;;1.25;;
19869;SDS011;10097;50.862;4.696;2022-09-09T12:39:38;7.72;;;1.27;;
19869;SDS011;10097;50.862;4.696;2022-09-09T12:42:19;8.02;;;1.17;;
19869;SDS011;10097;50.862;4.696;2022-09-09T12:50:28;6.55;;;1.05;;
19869;SDS011;10097;50.862;4.696;2022-09-09T12:52:57;6.55;;;1.40;;
19869;SDS011;10097;50.862;4.696;2022-09-09T12:55:29;5.32;;;0.98;;
19869;SDS011;10097;50.862;4.696;2022-09-09T12:57:58;6.57;;;1.25;;
19869;SDS011;10097;50.862;4.696;2022-09-09T13:00:30;5.70;;;1.00;;
19869;SDS011;10097;50.862;4.696;2022-09-09T13:02:58;4.85;;;0.88;;
19869;SDS011;10097;50.862;4.696;2022-09-09T13:05:27;5.55;;;1.15;;
19869;SDS011;10097;50.862;4.696;2022-09-09T13:08:01;9.20;;;1.10;;
19869;SDS011;10097;50.862;4.696;2022-09-09T13:10:29;6.95;;;1.17;;
19869;SDS011;10097;50.862;4.696;2022-09-09T13:12:59;4.38;;;0.80;;
19869;SDS011;10097;50.862;4.696;2022-09-09T13:15:28;7.00;;;0.95;;
19869;SDS011;10097;50.862;4.696;2022-09-09T13:17:57;7.50;;;1.10;;
19869;SDS011;10097;50.862;4.696;2022-09-09T13:20:39;5.97;;;0.70;;
19869;SDS011;10097;50.862;4.696;2022-09-09T13:23:20;4.85;;;1.00;;
19869;SDS011;10097;50.862;4.696;2022-09-09T13:25:54;7.78;;;1.27;;
19869;SDS011;10097;50.862;4.696;2022-09-09T13:28:33;4.88;;;1.15;;
19869;SDS011;10097;50.862;4.696;2022-09-09T13:31:02;5.88;;;1.20;;
19869;SDS011;10097;50.862;4.696;2022-09-09T13:33:33;5.15;;;1.08;;
19869;SDS011;10097;50.862;4.696;2022-09-09T13:36:13;5.57;;;1.00;;
19869;SDS011;10097;50.862;4.696;2022-09-09T13:41:33;5.82;;;0.80;;
19869;SDS011;10097;50.862;4.696;2022-09-09T13:44:02;4.35;;;0.80;;
19869;SDS011;10097;50.862;4.696;2022-09-09T13:46:44;5.38;;;0.82;;
19869;SDS011;10097;50.862;4.696;2022-09-09T13:51:47;3.65;;;0.88;;
19869;SDS011;10097;50.862;4.696;2022-09-09T13:54:21;9.25;;;1.08;;
19869;SDS011;10097;50.862;4.696;2022-09-09T13:56:52;7.68;;;1.13;;
19869;SDS011;10097;50.862;4.696;2022-09-09T13:59:20;5.35;;;1.08;;
19869;SDS011;10097;50.862;4.696;2022-09-09T14:01:56;3.70;;;0.90;;
19869;SDS011;10097;50.862;4.696;2022-09-09T14:04:29;2.33;;;0.50;;
19869;SDS011;10097;50.862;4.696;2022-09-09T14:07:16;4.93;;;0.70;;
19869;SDS011;10097;50.862;4.696;2022-09-09T14:09:44;4.55;;;0.98;;
19869;SDS011;10097;50.862;4.696;2022-09-09T14:12:25;6.13;;;1.02;;
19869;SDS011;10097;50.862;4.696;2022-09-09T14:14:54;3.67;;;0.60;;
19869;SDS011;10097;50.862;4.696;2022-09-09T14:17:25;7.60;;;1.13;;
19869;SDS011;10097;50.862;4.696;2022-09-09T14:19:59;5.57;;;1.00;;
19869;SDS011;10097;50.862;4.696;2022-09-09T14:22:36;4.72;;;0.50;;
19869;SDS011;10097;50.862;4.696;2022-09-09T14:25:02;4.15;;;0.95;;
19869;SDS011;10097;50.862;4.696;2022-09-09T14:27:28;3.15;;;0.70;;
19869;SDS011;10097;50.862;4.696;2022-09-09T14:29:55;6.10;;;1.15;;
19869;SDS011;10097;50.862;4.696;2022-09-09T14:32:25;3.95;;;0.73;;
19869;SDS011;10097;50.862;4.696;2022-09-09T14:34:57;7.35;;;1.20;;
19869;SDS011;10097;50.862;4.696;2022-09-09T14:37:23;7.35;;;1.20;;
19869;SDS011;10097;50.862;4.696;2022-09-09T14:39:51;6.45;;;1.02;;
19869;SDS011;10097;50.862;4.696;2022-09-09T14:42:19;6.18;;;0.95;;
19869;SDS011;10097;50.862;4.696;2022-09-09T14:44:50;4.95;;;0.93;;
19869;SDS011;10097;50.862;4.696;2022-09-09T14:47:19;4.80;;;0.80;;
19869;SDS011;10097;50.862;4.696;2022-09-09T14:49:47;6.65;;;1.10;;
19869;SDS011;10097;50.862;4.696;2022-09-09T14:52:15;5.47;;;1.02;;
19869;SDS011;10097;50.862;4.696;2022-09-09T14:54:43;5.45;;;1.05;;
19869;SDS011;10097;50.862;4.696;2022-09-09T14:57:12;7.93;;;1.00;;
19869;SDS011;10097;50.862;4.696;2022-09-09T14:59:46;4.55;;;1.05;;
19869;SDS011;10097;50.862;4.696;2022-09-09T15:02:16;6.22;;;1.00;;
19869;SDS011;10097;50.862;4.696;2022-09-09T15:04:44;5.75;;;1.10;;
19869;SDS011;10097;50.862;4.696;2022-09-09T15:07:14;5.10;;;1.23;;
19869;SDS011;10097;50.862;4.696;2022-09-09T15:09:44;4.35;;;0.88;;
19869;SDS011;10097;50.862;4.696;2022-09-09T15:12:15;6.25;;;1.05;;
19869;SDS011;10097;50.862;4.696;2022-09-09T15:14:43;6.88;;;1.00;;
19869;SDS011;10097;50.862;4.696;2022-09-09T15:17:12;6.50;;;0.88;;
19869;SDS011;10097;50.862;4.696;2022-09-09T15:19:44;3.78;;;0.82;;
19869;SDS011;10097;50.862;4.696;2022-09-09T15:22:18;9.18;;;1.20;;
19869;SDS011;10097;50.862;4.696;2022-09-09T15:24:46;2.88;;;0.57;;
19869;SDS011;10097;50.862;4.696;2022-09-09T15:27:14;5.30;;;0.90;;
19869;SDS011;10097;50.862;4.696;2022-09-09T15:29:43;5.18;;;0.80;;
19869;SDS011;10097;50.862;4.696;2022-09-09T15:32:17;6.82;;;0.93;;
19869;SDS011;10097;50.862;4.696;2022-09-09T15:34:45;4.45;;;0.85;;
19869;SDS011;10097;50.862;4.696;2022-09-09T15:37:11;8.20;;;0.80;;
19869;SDS011;10097;50.862;4.696;2022-09-09T15:39:57;6.70;;;0.80;;
19869;SDS011;10097;50.862;4.696;2022-09-09T15:42:28;4.28;;;0.80;;
19869;SDS011;10097;50.862;4.696;2022-09-09T15:44:58;4.63;;;0.80;;
19869;SDS011;10097;50.862;4.696;2022-09-09T15:47:35;5.07;;;0.80;;
19869;SDS011;10097;50.862;4.696;2022-09-09T15:50:03;6.05;;;1.10;;
19869;SDS011;10097;50.862;4.696;2022-09-09T15:52:34;7.38;;;1.08;;
19869;SDS011;10097;50.862;4.696;2022-09-09T15:55:02;5.97;;;0.93;;
19869;SDS011;10097;50.862;4.696;2022-09-09T15:57:31;4.35;;;0.80;;
19869;SDS011;10097;50.862;4.696;2022-09-09T16:00:06;4.43;;;1.02;;
19869;SDS011;10097;50.862;4.696;2022-09-09T16:02:33;3.90;;;1.02;;
19869;SDS011;10097;50.862;4.696;2022-09-09T16:05:01;4.53;;;0.70;;
19869;SDS011;10097;50.862;4.696;2022-09-09T16:07:45;6.43;;;1.20;;
19869;SDS011;10097;50.862;4.696;2022-09-09T16:10:12;4.20;;;0.77;;
19869;SDS011;10097;50.862;4.696;2022-09-09T16:12:47;9.15;;;1.33;;
19869;SDS011;10097;50.862;4.696;2022-09-09T16:15:16;5.00;;;0.90;;
19869;SDS011;10097;50.862;4.696;2022-09-09T16:17:45;5.57;;;1.15;;
19869;SDS011;10097;50.862;4.696;2022-09-09T16:20:26;4.43;;;0.75;;
19869;SDS011;10097;50.862;4.696;2022-09-09T16:22:51;4.78;;;0.90;;
19869;SDS011;10097;50.862;4.696;2022-09-09T16:25:22;3.38;;;1.05;;
19869;SDS011;10097;50.862;4.696;2022-09-09T16:27:50;6.45;;;1.10;;
19869;SDS011;10097;50.862;4.696;2022-09-09T16:30:21;4.97;;;1.00;;
19869;SDS011;10097;50.862;4.696;2022-09-09T16:32:55;5.40;;;1.08;;
19869;SDS011;10097;50.862;4.696;2022-09-09T16:35:25;6.10;;;0.70;;
19869;SDS011;10097;50.862;4.696;2022-09-09T16:37:51;3.75;;;0.90;;
19869;SDS011;10097;50.862;4.696;2022-09-09T16:40:24;5.07;;;0.77;;
19869;SDS011;10097;50.862;4.696;2022-09-09T16:42:54;6.20;;;1.45;;
19869;SDS011;10097;50.862;4.696;2022-09-09T16:45:32;5.20;;;1.00;;
19869;SDS011;10097;50.862;4.696;2022-09-09T16:47:58;6.63;;;1.08;;
19869;SDS011;10097;50.862;4.696;2022-09-09T16:50:25;5.20;;;1.20;;
19869;SDS011;10097;50.862;4.696;2022-09-09T16:52:59;9.25;;;1.33;;
19869;SDS011;10097;50.862;4.696;2022-09-09T16:55:37;8.15;;;1.40;;
19869;SDS011;10097;50.862;4.696;2022-09-09T16:58:09;6.80;;;1.58;;
19869;SDS011;10097;50.862;4.696;2022-09-09T17:00:43;7.22;;;1.13;;
19869;SDS011;10097;50.862;4.696;2022-09-09T17:03:12;3.72;;;1.15;;
19869;SDS011;10097;50.862;4.696;2022-09-09T17:05:41;4.72;;;0.90;;
19869;SDS011;10097;50.862;4.696;2022-09-09T17:08:10;3.65;;;1.02;;
19869;SDS011;10097;50.862;4.696;2022-09-09T17:10:44;6.75;;;0.80;;
19869;SDS011;10097;50.862;4.696;2022-09-09T17:13:12;4.22;;;0.85;;
19869;SDS011;10097;50.862;4.696;2022-09-09T17:15:39;4.65;;;0.82;;
19869;SDS011;10097;50.862;4.696;2022-09-09T17:18:07;3.03;;;0.93;;
19869;SDS011;10097;50.862;4.696;2022-09-09T17:20:42;3.60;;;1.02;;
19869;SDS011;10097;50.862;4.696;2022-09-09T17:23:17;9.45;;;1.20;;
19869;SDS011;10097;50.862;4.696;2022-09-09T17:25:55;2.70;;;0.50;;
19869;SDS011;10097;50.862;4.696;2022-09-09T17:28:22;3.95;;;0.75;;
19869;SDS011;10097;50.862;4.696;2022-09-09T17:31:00;2.58;;;0.65;;
19869;SDS011;10097;50.862;4.696;2022-09-09T17:33:31;2.78;;;0.77;;
19869;SDS011;10097;50.862;4.696;2022-09-09T17:36:06;1.70;;;0.63;;